createdAt,value
2023-04-08T00:00:12.051Z,5.00
2023-04-08T00:02:38.931Z,5.17
2023-04-08T00:05:07.201Z,4.50
2023-04-08T00:07:34.362Z,5.27
2023-04-08T00:10:01.115Z,4.90
2023-04-08T00:12:27.877Z,5.50
2023-04-08T00:14:54.660Z,4.60
2023-04-08T00:17:21.414Z,4.87
2023-04-08T00:19:48.156Z,4.63
2023-04-08T00:22:14.926Z,4.80
2023-04-08T00:24:41.693Z,5.13
2023-04-08T00:27:08.505Z,5.53
2023-04-08T00:29:35.290Z,6.00
2023-04-08T00:32:03.220Z,5.97
2023-04-08T00:34:30.349Z,5.80
2023-04-08T00:36:57.035Z,5.30
2023-04-08T00:39:23.797Z,5.27
2023-04-08T00:41:50.756Z,5.20
2023-04-08T00:44:17.489Z,5.67
2023-04-08T00:46:44.345Z,5.90
2023-04-08T00:49:11.327Z,5.30
2023-04-08T00:51:38.081Z,5.37
2023-04-08T00:54:05.537Z,5.43
2023-04-08T00:56:34.412Z,5.10
2023-04-08T00:59:02.242Z,5.90
2023-04-08T01:01:55.281Z,5.33
2023-04-08T01:04:59.820Z,4.90
2023-04-08T01:07:35.327Z,5.57
2023-04-08T01:10:21.093Z,5.60
2023-04-08T01:12:57.695Z,5.90
2023-04-08T01:15:28.835Z,5.67
2023-04-08T01:17:58.815Z,5.27
2023-04-08T01:20:28.447Z,5.77
2023-04-08T01:23:13.192Z,5.83
2023-04-08T01:25:40.101Z,5.00
2023-04-08T01:28:19.012Z,5.23
2023-04-08T01:30:49.004Z,5.30
2023-04-08T01:33:18.878Z,5.63
2023-04-08T01:35:46.464Z,5.40
2023-04-08T01:38:19.608Z,5.20
2023-04-08T01:40:48.615Z,5.60
2023-04-08T01:43:18.464Z,5.23
2023-04-08T01:45:48.075Z,5.63
2023-04-08T01:48:15.795Z,5.27
2023-04-08T01:50:44.370Z,5.40
2023-04-08T01:53:12.656Z,5.47
2023-04-08T01:55:41.793Z,5.80
2023-04-08T01:58:16.347Z,6.07
2023-04-08T02:00:44.252Z,5.57
2023-04-08T02:03:13.466Z,4.83
2023-04-08T02:05:40.968Z,5.50
2023-04-08T02:08:07.695Z,5.40
2023-04-08T02:10:34.439Z,4.53
2023-04-08T02:13:01.741Z,5.10
2023-04-08T02:15:34.470Z,5.50
2023-04-08T02:18:11.379Z,5.40
2023-04-08T02:20:46.900Z,5.40
2023-04-08T02:23:21.587Z,5.73
2023-04-08T02:25:49.872Z,5.33
2023-04-08T02:28:19.818Z,6.10
2023-04-08T02:30:52.082Z,5.87
2023-04-08T02:33:22.656Z,5.73
2023-04-08T02:35:54.478Z,5.20
2023-04-08T02:38:21.902Z,5.80
2023-04-08T02:40:51.168Z,5.57
2023-04-08T02:43:17.901Z,5.23
2023-04-08T02:45:45.538Z,6.17
2023-04-08T02:48:12.446Z,5.70
2023-04-08T02:50:40.611Z,5.83
2023-04-08T02:53:09.443Z,5.03
2023-04-08T02:55:36.188Z,5.90
2023-04-08T02:58:02.899Z,5.40
2023-04-08T03:00:29.659Z,5.43
2023-04-08T03:02:57.053Z,5.37
2023-04-08T03:05:24.223Z,5.97
2023-04-08T03:07:51.000Z,5.70
2023-04-08T03:10:17.819Z,5.80
2023-04-08T03:12:44.556Z,4.90
2023-04-08T03:15:11.339Z,5.83
2023-04-08T03:17:38.068Z,5.37
2023-04-08T03:20:06.002Z,5.77
2023-04-08T03:22:33.825Z,5.70
2023-04-08T03:25:00.730Z,5.20
2023-04-08T03:27:27.467Z,5.17
2023-04-08T03:29:54.305Z,5.27
2023-04-08T03:32:21.145Z,5.83
2023-04-08T03:34:50.909Z,5.60
2023-04-08T03:37:18.622Z,5.80
2023-04-08T03:39:46.265Z,6.63
2023-04-08T03:42:13.129Z,5.83
2023-04-08T03:44:39.875Z,5.50
2023-04-08T03:47:06.642Z,5.63
2023-04-08T03:49:33.352Z,5.67
2023-04-08T03:52:00.098Z,6.13
2023-04-08T03:54:26.847Z,6.00
2023-04-08T03:56:53.567Z,5.70
2023-04-08T03:59:20.292Z,5.77
2023-04-08T04:01:47.548Z,5.73
2023-04-08T04:04:14.898Z,5.47
2023-04-08T04:06:41.855Z,6.47
2023-04-08T04:09:08.665Z,6.20
2023-04-08T04:11:38.388Z,5.53
2023-04-08T04:14:05.260Z,4.93
2023-04-08T04:16:33.124Z,5.53
2023-04-08T04:19:00.237Z,5.97
2023-04-08T04:21:27.179Z,5.80
2023-04-08T04:23:54.001Z,5.83
2023-04-08T04:26:21.020Z,5.60
2023-04-08T04:28:48.009Z,6.27
2023-04-08T04:31:23.612Z,6.10
2023-04-08T04:33:50.478Z,5.70
2023-04-08T04:36:17.241Z,6.03
2023-04-08T04:38:45.567Z,6.00
2023-04-08T04:41:12.550Z,6.17
2023-04-08T04:43:39.268Z,5.67
2023-04-08T04:46:08.805Z,5.50
2023-04-08T04:48:35.973Z,5.90
2023-04-08T04:51:07.298Z,5.73
2023-04-08T04:53:34.118Z,6.73
2023-04-08T04:56:03.425Z,6.00
2023-04-08T04:58:30.976Z,6.03
2023-04-08T05:00:58.221Z,6.13
2023-04-08T05:03:25.034Z,5.60
2023-04-08T05:05:53.920Z,5.93
2023-04-08T05:08:22.016Z,5.93
2023-04-08T05:10:50.648Z,6.33
2023-04-08T05:13:18.660Z,5.33
2023-04-08T05:15:46.014Z,6.33
2023-04-08T05:18:13.301Z,5.57
2023-04-08T05:20:40.145Z,5.90
2023-04-08T05:23:07.673Z,6.30
2023-04-08T05:25:34.620Z,6.63
2023-04-08T05:28:01.332Z,6.67
2023-04-08T05:30:28.112Z,6.93
2023-04-08T05:32:55.187Z,7.03
2023-04-08T05:35:22.745Z,6.43
2023-04-08T05:37:49.481Z,7.00
2023-04-08T05:40:16.567Z,7.27
2023-04-08T05:42:43.419Z,7.57
2023-04-08T05:45:11.118Z,6.67
2023-04-08T05:47:37.926Z,6.93
2023-04-08T05:50:05.339Z,7.13
2023-04-08T05:52:32.053Z,5.97
2023-04-08T05:54:58.787Z,7.10
2023-04-08T05:57:25.754Z,6.93
2023-04-08T05:59:53.351Z,6.80
2023-04-08T06:02:20.207Z,7.23
2023-04-08T06:04:47.154Z,6.60
2023-04-08T06:07:13.934Z,6.00
2023-04-08T06:09:40.653Z,6.30
2023-04-08T06:12:07.437Z,5.87
2023-04-08T06:14:34.185Z,6.27
2023-04-08T06:17:01.145Z,6.00
2023-04-08T06:19:28.009Z,6.87
2023-04-08T06:21:58.761Z,5.87
2023-04-08T06:24:29.401Z,5.90
2023-04-08T06:26:56.693Z,5.30
2023-04-08T06:29:23.772Z,6.73
2023-04-08T06:31:50.937Z,6.10
2023-04-08T06:34:17.905Z,6.23
2023-04-08T06:36:44.642Z,5.50
2023-04-08T06:39:12.513Z,6.10
2023-04-08T06:41:39.225Z,6.03
2023-04-08T06:44:06.079Z,6.20
2023-04-08T06:46:32.897Z,5.97
2023-04-08T06:48:59.644Z,5.87
2023-04-08T06:51:27.812Z,6.50
2023-04-08T06:53:55.274Z,5.63
2023-04-08T06:56:22.911Z,6.00
2023-04-08T06:58:49.869Z,6.27
2023-04-08T07:01:16.839Z,5.07
2023-04-08T07:03:43.915Z,5.30
2023-04-08T07:06:10.902Z,5.27
2023-04-08T07:08:37.606Z,5.07
2023-04-08T07:11:05.556Z,5.57
2023-04-08T07:13:32.352Z,5.13
2023-04-08T07:15:59.124Z,5.33
2023-04-08T07:18:26.437Z,5.17
2023-04-08T07:20:57.828Z,5.73
2023-04-08T07:23:24.599Z,5.03
2023-04-08T07:25:52.425Z,5.07
2023-04-08T07:28:19.819Z,4.90
2023-04-08T07:30:47.355Z,5.73
2023-04-08T07:33:15.577Z,5.43
2023-04-08T07:35:42.333Z,5.57
2023-04-08T07:38:11.460Z,5.93
2023-04-08T07:40:38.248Z,5.20
2023-04-08T07:43:05.010Z,5.10
2023-04-08T07:45:31.938Z,5.10
2023-04-08T07:47:58.725Z,5.57
2023-04-08T07:50:25.691Z,4.80
2023-04-08T07:52:53.285Z,5.03
2023-04-08T07:55:20.957Z,4.60
2023-04-08T07:57:47.751Z,5.03
2023-04-08T08:00:20.779Z,4.13
2023-04-08T08:02:48.804Z,4.60
2023-04-08T08:05:15.759Z,4.50
2023-04-08T08:07:42.594Z,4.77
2023-04-08T08:10:10.982Z,4.87
2023-04-08T08:12:37.812Z,4.40
2023-04-08T08:15:05.131Z,4.27
2023-04-08T08:17:33.958Z,4.53
2023-04-08T08:20:01.173Z,4.80
2023-04-08T08:22:27.912Z,4.40
2023-04-08T08:24:58.473Z,4.30
2023-04-08T08:27:25.816Z,4.50
2023-04-08T08:29:52.634Z,4.40
2023-04-08T08:32:19.516Z,4.47
2023-04-08T08:34:46.298Z,4.67
2023-04-08T08:37:13.039Z,5.07
2023-04-08T08:39:39.751Z,4.80
2023-04-08T08:42:06.573Z,4.37
2023-04-08T08:44:34.344Z,4.20
2023-04-08T08:47:01.170Z,5.03
2023-04-08T08:49:28.026Z,4.23
2023-04-08T08:51:55.756Z,4.90
2023-04-08T08:54:22.597Z,5.17
2023-04-08T08:56:49.413Z,4.73
2023-04-08T08:59:16.214Z,4.77
2023-04-08T09:01:43.716Z,4.67
2023-04-08T09:04:20.115Z,4.60
2023-04-08T09:07:09.892Z,4.93
2023-04-08T09:09:53.738Z,4.27
2023-04-08T09:12:21.231Z,4.90
2023-04-08T09:14:48.428Z,4.73
2023-04-08T09:17:16.168Z,5.03
2023-04-08T09:20:12.985Z,4.87
2023-04-08T09:23:03.071Z,4.10
2023-04-08T09:25:32.710Z,4.40
2023-04-08T09:28:00.438Z,4.57
2023-04-08T09:30:28.205Z,4.67
2023-04-08T09:32:59.042Z,4.40
2023-04-08T09:35:26.003Z,5.17
2023-04-08T09:37:52.953Z,4.50
2023-04-08T09:40:19.788Z,4.17
2023-04-08T09:42:52.290Z,4.67
2023-04-08T09:45:19.681Z,4.27
2023-04-08T09:48:19.130Z,4.27
2023-04-08T09:50:51.835Z,4.67
2023-04-08T09:53:29.417Z,4.60
2023-04-08T09:55:59.255Z,4.40
2023-04-08T09:58:32.727Z,4.07
2023-04-08T10:01:00.211Z,3.87
2023-04-08T10:03:49.874Z,3.93
2023-04-08T10:06:17.609Z,4.30
2023-04-08T10:08:45.168Z,4.50
2023-04-08T10:11:14.181Z,4.20
2023-04-08T10:13:41.221Z,4.10
2023-04-08T10:16:34.537Z,3.77
2023-04-08T10:19:01.574Z,4.20
2023-04-08T10:21:36.852Z,4.30
2023-04-08T10:24:08.581Z,4.33
2023-04-08T10:26:45.640Z,4.17
2023-04-08T10:29:18.325Z,3.93
2023-04-08T10:31:50.672Z,4.33
2023-04-08T10:34:18.226Z,3.83
2023-04-08T10:36:46.159Z,4.13
2023-04-08T10:39:14.676Z,4.10
2023-04-08T10:41:49.947Z,4.17
2023-04-08T10:44:26.647Z,4.47
2023-04-08T10:46:54.969Z,3.70
2023-04-08T10:49:22.084Z,3.80
2023-04-08T10:51:49.578Z,4.50
2023-04-08T10:54:18.376Z,3.70
2023-04-08T10:56:52.370Z,3.30
2023-04-08T10:59:32.850Z,4.03
2023-04-08T11:02:01.208Z,3.83
2023-04-08T11:04:28.490Z,4.50
2023-04-08T11:06:55.292Z,4.10
2023-04-08T11:09:22.050Z,4.23
2023-04-08T11:11:48.905Z,4.43
2023-04-08T11:14:19.647Z,4.57
2023-04-08T11:16:46.374Z,4.87
2023-04-08T11:19:14.280Z,4.57
2023-04-08T11:21:41.185Z,4.67
2023-04-08T11:24:12.100Z,4.20
2023-04-08T11:26:40.485Z,4.73
2023-04-08T11:29:14.026Z,4.17
2023-04-08T11:31:43.544Z,4.50
2023-04-08T11:34:10.528Z,5.53
2023-04-08T11:36:41.455Z,4.50
2023-04-08T11:39:10.343Z,4.53
2023-04-08T11:41:39.336Z,5.60
2023-04-08T11:44:07.104Z,5.60
2023-04-08T11:46:35.477Z,5.90
2023-04-08T11:49:07.512Z,6.97
2023-04-08T11:51:35.934Z,5.97
2023-04-08T11:54:07.244Z,5.10
2023-04-08T11:56:46.918Z,4.43
2023-04-08T11:59:13.834Z,5.17
2023-04-08T12:01:40.654Z,5.37
2023-04-08T12:04:10.352Z,5.43
2023-04-08T12:06:37.487Z,4.63
2023-04-08T12:09:04.276Z,5.20
2023-04-08T12:11:31.302Z,5.50
2023-04-08T12:13:58.000Z,5.73
2023-04-08T12:16:24.867Z,5.43
2023-04-08T12:18:51.711Z,5.03
2023-04-08T12:21:18.551Z,6.07
2023-04-08T12:23:45.470Z,5.33
2023-04-08T12:26:13.220Z,5.23
2023-04-08T12:28:40.296Z,5.13
2023-04-08T12:31:07.534Z,5.20
2023-04-08T12:33:34.311Z,5.67
2023-04-08T12:36:01.388Z,4.77
2023-04-08T12:38:28.374Z,5.20
2023-04-08T12:40:56.058Z,4.87
2023-04-08T12:43:23.899Z,5.35
2023-04-08T12:45:51.213Z,4.87
2023-04-08T12:48:18.695Z,5.20
2023-04-08T12:50:45.469Z,4.57
2023-04-08T12:53:12.221Z,4.57
2023-04-08T12:55:39.038Z,5.83
2023-04-08T12:58:06.085Z,4.87
2023-04-08T13:00:32.952Z,5.67
2023-04-08T13:02:59.784Z,5.70
2023-04-08T13:05:42.077Z,5.20
2023-04-08T13:08:10.730Z,5.93
2023-04-08T13:10:37.856Z,5.37
2023-04-08T13:13:04.593Z,6.33
2023-04-08T13:15:31.591Z,5.00
2023-04-08T13:17:58.363Z,4.70
2023-04-08T13:20:25.611Z,4.50
2023-04-08T13:22:53.683Z,4.80
2023-04-08T13:25:20.889Z,5.17
2023-04-08T13:27:47.854Z,7.57
2023-04-08T13:30:14.707Z,6.70
2023-04-08T13:32:41.492Z,7.40
2023-04-08T13:35:09.578Z,6.77
2023-04-08T13:37:36.319Z,6.67
2023-04-08T13:40:03.752Z,6.50
2023-04-08T13:42:33.311Z,5.20
2023-04-08T13:45:00.543Z,5.93
2023-04-08T13:47:27.989Z,5.47
2023-04-08T13:49:54.720Z,5.00
2023-04-08T13:52:21.435Z,5.13
2023-04-08T13:54:48.147Z,6.10
2023-04-08T13:57:15.239Z,4.60
2023-04-08T13:59:44.317Z,4.13
2023-04-08T14:02:11.500Z,4.00
2023-04-08T14:04:38.316Z,4.37
2023-04-08T14:07:05.268Z,4.10
2023-04-08T14:09:32.001Z,4.10
2023-04-08T14:11:59.361Z,3.50
2023-04-08T14:14:26.127Z,3.70
2023-04-08T14:16:53.151Z,3.97
2023-04-08T14:19:20.231Z,3.43
2023-04-08T14:21:46.964Z,3.77
2023-04-08T14:24:13.784Z,2.97
2023-04-08T14:26:40.780Z,3.33
2023-04-08T14:29:08.242Z,3.40
2023-04-08T14:31:36.197Z,3.60
2023-04-08T14:34:03.644Z,3.13
2023-04-08T14:36:31.584Z,3.50
2023-04-08T14:38:59.200Z,3.23
2023-04-08T14:41:27.087Z,3.00
2023-04-08T14:43:54.285Z,2.70
2023-04-08T14:46:21.681Z,2.60
2023-04-08T14:48:48.669Z,2.70
2023-04-08T14:51:15.440Z,2.87
2023-04-08T14:53:42.201Z,2.67
2023-04-08T14:56:09.324Z,2.77
2023-04-08T14:58:36.208Z,2.40
2023-04-08T15:01:03.233Z,2.70
2023-04-08T15:03:30.288Z,2.67
2023-04-08T15:05:57.624Z,2.87
2023-04-08T15:08:24.497Z,8.20
2023-04-08T15:10:51.369Z,5.43
2023-04-08T15:13:18.086Z,5.27
2023-04-08T15:15:44.933Z,5.77
2023-04-08T15:18:11.779Z,6.00
2023-04-08T15:20:38.523Z,3.50
2023-04-08T15:23:05.952Z,3.30
2023-04-08T15:25:32.930Z,3.10
2023-04-08T15:27:59.814Z,3.30
2023-04-08T15:30:27.546Z,3.13
2023-04-08T15:32:56.951Z,3.00
2023-04-08T15:35:31.356Z,2.73
2023-04-08T15:37:58.362Z,2.53
2023-04-08T15:40:25.703Z,2.53
2023-04-08T15:42:53.074Z,2.47
2023-04-08T15:45:20.524Z,3.10
2023-04-08T15:47:47.373Z,3.00
2023-04-08T15:50:14.967Z,3.67
2023-04-08T15:52:41.824Z,3.23
2023-04-08T15:55:08.884Z,3.10
2023-04-08T15:57:36.755Z,3.23
2023-04-08T16:00:09.557Z,2.93
2023-04-08T16:02:36.595Z,2.90
2023-04-08T16:05:03.823Z,2.90
2023-04-08T16:07:30.715Z,3.60
2023-04-08T16:09:58.865Z,2.93
2023-04-08T16:12:25.736Z,3.17
2023-04-08T16:14:52.541Z,3.00
2023-04-08T16:17:19.328Z,2.60
2023-04-08T16:19:46.121Z,2.60
2023-04-08T16:22:12.871Z,3.40
2023-04-08T16:24:39.609Z,4.23
2023-04-08T16:27:06.692Z,4.60
2023-04-08T16:29:33.455Z,4.13
2023-04-08T16:32:01.489Z,5.03
2023-04-08T16:34:28.293Z,5.27
2023-04-08T16:36:55.061Z,7.60
2023-04-08T16:39:22.002Z,6.87
2023-04-08T16:41:48.736Z,4.73
2023-04-08T16:44:15.973Z,4.30
2023-04-08T16:46:43.268Z,3.57
2023-04-08T16:49:11.736Z,3.90
2023-04-08T16:51:40.642Z,3.90
2023-04-08T16:54:07.378Z,3.47
2023-04-08T16:56:34.135Z,3.20
2023-04-08T16:59:00.941Z,4.03
2023-04-08T17:01:27.831Z,3.63
2023-04-08T17:03:54.974Z,3.50
2023-04-08T17:06:22.405Z,3.57
2023-04-08T17:08:49.286Z,4.27
2023-04-08T17:11:16.476Z,4.40
2023-04-08T17:13:44.290Z,3.90
2023-04-08T17:16:16.626Z,3.57
2023-04-08T17:18:44.881Z,3.90
2023-04-08T17:21:13.942Z,3.40
2023-04-08T17:23:40.816Z,4.13
2023-04-08T17:26:09.173Z,4.00
2023-04-08T17:28:36.390Z,3.97
2023-04-08T17:31:03.285Z,4.23
2023-04-08T17:33:30.223Z,3.87
2023-04-08T17:35:57.004Z,3.93
2023-04-08T17:38:24.001Z,3.90
2023-04-08T17:40:50.814Z,3.73
2023-04-08T17:43:17.959Z,4.10
2023-04-08T17:45:44.972Z,3.80
2023-04-08T17:48:11.754Z,3.20
2023-04-08T17:50:38.491Z,3.30
2023-04-08T17:53:05.901Z,3.47
2023-04-08T17:55:33.134Z,3.17
2023-04-08T17:57:59.859Z,3.17
2023-04-08T18:00:27.428Z,3.40
2023-04-08T18:02:54.412Z,3.47
2023-04-08T18:05:21.777Z,3.20
2023-04-08T18:07:48.588Z,2.93
2023-04-08T18:10:15.344Z,3.10
2023-04-08T18:12:42.098Z,3.20
2023-04-08T18:15:09.322Z,3.00
2023-04-08T18:17:36.074Z,3.20
2023-04-08T18:20:03.131Z,3.03
2023-04-08T18:22:29.890Z,3.13
2023-04-08T18:24:56.626Z,3.40
2023-04-08T18:27:23.338Z,3.17
2023-04-08T18:29:53.192Z,3.63
2023-04-08T18:32:19.964Z,3.83
2023-04-08T18:34:46.974Z,4.33
2023-04-08T18:37:16.720Z,4.17
2023-04-08T18:39:43.446Z,4.07
2023-04-08T18:42:10.180Z,3.77
2023-04-08T18:44:37.353Z,4.33
2023-04-08T18:47:04.540Z,3.90
2023-04-08T18:49:33.922Z,4.20
2023-04-08T18:52:02.877Z,3.97
2023-04-08T18:54:30.643Z,3.67
2023-04-08T18:56:57.990Z,4.03
2023-04-08T18:59:24.990Z,4.20
2023-04-08T19:01:51.876Z,4.20
2023-04-08T19:04:18.754Z,4.50
2023-04-08T19:06:45.503Z,4.73
2023-04-08T19:09:12.771Z,5.30
2023-04-08T19:11:39.782Z,4.83
2023-04-08T19:14:07.734Z,5.07
2023-04-08T19:16:34.981Z,4.30
2023-04-08T19:19:01.687Z,4.00
2023-04-08T19:21:30.632Z,4.40
2023-04-08T19:23:57.833Z,4.37
2023-04-08T19:26:24.577Z,4.37
2023-04-08T19:28:51.318Z,4.63
2023-04-08T19:31:20.336Z,4.57
2023-04-08T19:33:47.609Z,3.97
2023-04-08T19:36:14.401Z,3.80
2023-04-08T19:38:41.256Z,3.67
2023-04-08T19:41:08.126Z,3.37
2023-04-08T19:43:35.367Z,3.53
2023-04-08T19:46:02.454Z,3.63
2023-04-08T19:48:29.369Z,3.60
2023-04-08T19:50:56.212Z,3.40
2023-04-08T19:53:22.949Z,3.80
2023-04-08T19:55:49.953Z,4.03
2023-04-08T19:58:16.728Z,3.90
2023-04-08T20:00:43.539Z,3.73
2023-04-08T20:03:10.483Z,4.07
2023-04-08T20:05:37.367Z,3.67
2023-04-08T20:08:04.130Z,3.60
2023-04-08T20:10:30.927Z,3.73
2023-04-08T20:12:57.708Z,3.50
2023-04-08T20:15:25.587Z,3.37
2023-04-08T20:17:53.326Z,3.37
2023-04-08T20:20:20.439Z,3.30
2023-04-08T20:22:47.192Z,3.40
2023-04-08T20:25:14.010Z,3.67
2023-04-08T20:27:41.395Z,3.90
2023-04-08T20:30:09.325Z,4.00
2023-04-08T20:32:36.330Z,3.40
2023-04-08T20:35:04.654Z,3.97
2023-04-08T20:37:33.140Z,3.80
2023-04-08T20:39:59.888Z,3.80
2023-04-08T20:42:26.646Z,3.40
2023-04-08T20:44:53.710Z,3.60
2023-04-08T20:47:20.833Z,3.33
2023-04-08T20:49:48.133Z,3.77
2023-04-08T20:52:14.928Z,3.33
2023-04-08T20:54:41.727Z,4.37
2023-04-08T20:57:08.632Z,5.30
2023-04-08T20:59:35.419Z,5.70
2023-04-08T21:02:02.233Z,6.23
2023-04-08T21:04:29.196Z,5.87
2023-04-08T21:06:55.961Z,5.40
2023-04-08T21:09:22.704Z,5.83
2023-04-08T21:11:49.442Z,5.07
2023-04-08T21:14:16.144Z,5.30
2023-04-08T21:16:42.984Z,4.97
2023-04-08T21:19:09.776Z,4.83
2023-04-08T21:21:36.572Z,4.90
2023-04-08T21:24:03.746Z,4.50
2023-04-08T21:26:30.847Z,4.70
2023-04-08T21:28:57.723Z,3.97
2023-04-08T21:31:24.476Z,4.10
2023-04-08T21:33:51.321Z,3.70
2023-04-08T21:36:18.816Z,3.97
2023-04-08T21:38:45.773Z,3.80
2023-04-08T21:41:12.507Z,4.40
2023-04-08T21:43:39.278Z,3.87
2023-04-08T21:46:06.836Z,3.93
2023-04-08T21:48:33.584Z,4.40
2023-04-08T21:51:00.893Z,4.40
2023-04-08T21:53:27.626Z,4.13
2023-04-08T21:55:54.381Z,4.53
2023-04-08T21:58:21.153Z,4.20
2023-04-08T22:00:49.116Z,4.37
2023-04-08T22:03:16.045Z,4.20
2023-04-08T22:05:42.779Z,4.13
2023-04-08T22:08:09.551Z,4.10
2023-04-08T22:10:36.397Z,3.57
2023-04-08T22:13:03.620Z,4.50
2023-04-08T22:15:33.331Z,3.87
2023-04-08T22:18:01.447Z,3.47
2023-04-08T22:20:28.400Z,3.97
2023-04-08T22:22:55.157Z,4.17
2023-04-08T22:25:21.894Z,5.27
2023-04-08T22:27:48.684Z,4.57
2023-04-08T22:30:15.623Z,4.70
2023-04-08T22:32:42.407Z,4.47
2023-04-08T22:35:09.687Z,4.70
2023-04-08T22:37:36.558Z,4.20
2023-04-08T22:40:03.662Z,4.30
2023-04-08T22:42:30.426Z,3.93
2023-04-08T22:44:57.280Z,3.93
2023-04-08T22:47:24.037Z,4.53
2023-04-08T22:49:50.929Z,4.27
2023-04-08T22:52:17.738Z,4.27
2023-04-08T22:54:44.494Z,4.00
2023-04-08T22:57:11.255Z,3.77
2023-04-08T22:59:37.985Z,4.70
2023-04-08T23:02:04.822Z,11.30
2023-04-08T23:04:31.770Z,20.27
2023-04-08T23:06:58.554Z,18.70
2023-04-08T23:09:27.021Z,10.47
2023-04-08T23:11:53.771Z,8.07
2023-04-08T23:14:20.495Z,7.90
2023-04-08T23:16:47.227Z,7.07
2023-04-08T23:19:14.037Z,6.60
2023-04-08T23:21:41.047Z,5.73
2023-04-08T23:24:08.031Z,4.80
2023-04-08T23:26:34.906Z,5.27
2023-04-08T23:29:01.743Z,4.87
2023-04-08T23:31:28.548Z,4.63
2023-04-08T23:33:55.499Z,4.97
2023-04-08T23:36:22.242Z,3.87
2023-04-08T23:38:50.662Z,5.00
2023-04-08T23:41:17.649Z,3.83
2023-04-08T23:43:46.042Z,4.40
2023-04-08T23:46:13.000Z,4.60
2023-04-08T23:48:39.898Z,4.77
2023-04-08T23:51:06.788Z,4.43
2023-04-08T23:53:33.602Z,3.97
2023-04-08T23:56:08.385Z,4.80
2023-04-08T23:58:35.774Z,4.67
